Time;durP1;ratioP1;P1;durP2;ratioP2;P2;SDS_P1;SDS_P2;PMS_P1;PMS_P2;Temp;Humidity;BMP_temperature;BMP_pressure;BME280_temperature;BME280_humidity;BME280_pressure;Samples;Min_cycle;Max_cycle;Signal;HPM_P1;HPM_P2
2023/01/04 00:02:17;;;;;;;5.43;4.45;;;;;;;;;;5115230;28;20051;-57
2023/01/04 00:04:43;;;;;;;7.20;4.63;;;;;;;;;;5114957;28;20030;-57
2023/01/04 00:07:09;;;;;;;5.53;4.25;;;;;;;;;;5114585;28;20024;-57
2023/01/04 00:09:35;;;;;;;5.60;4.30;;;;;;;;;;5114890;28;20038;-56
2023/01/04 00:12:02;;;;;;;6.03;4.90;;;;;;;;;;5114806;28;20130;-57
2023/01/04 00:14:28;;;;;;;6.40;5.45;;;;;;;;;;5115369;28;20369;-56
2023/01/04 00:16:54;;;;;;;10.60;4.57;;;;;;;;;;5114755;28;20031;-58
2023/01/04 00:19:20;;;;;;;5.18;4.47;;;;;;;;;;5115285;28;20425;-57
2023/01/04 00:21:46;;;;;;;5.07;4.15;;;;;;;;;;5114711;28;20510;-57
2023/01/04 00:24:14;;;;;;;6.82;5.13;;;;;;;;;;5115311;28;20438;-57
2023/01/04 00:26:40;;;;;;;8.20;5.35;;;;;;;;;;5115059;28;20122;-55
2023/01/04 00:29:06;;;;;;;5.97;4.63;;;;;;;;;;5114601;28;20469;-57
2023/01/04 00:31:33;;;;;;;5.65;4.60;;;;;;;;;;5114607;28;20026;-54
2023/01/04 00:34:00;;;;;;;5.68;4.43;;;;;;;;;;5114495;28;20042;-57
2023/01/04 00:36:27;;;;;;;7.32;6.43;;;;;;;;;;5113744;28;20526;-57
2023/01/04 00:39:08;;;;;;;6.88;5.60;;;;;;;;;;5114369;28;20023;-57
2023/01/04 00:41:48;;;;;;;6.22;5.38;;;;;;;;;;5114512;28;20024;-57
2023/01/04 00:44:14;;;;;;;5.13;4.65;;;;;;;;;;5114154;28;20462;-57
2023/01/04 00:46:41;;;;;;;4.45;4.05;;;;;;;;;;5114247;28;20035;-57
2023/01/04 00:49:07;;;;;;;6.82;5.03;;;;;;;;;;5114186;28;20027;-58
2023/01/04 00:51:35;;;;;;;5.90;4.57;;;;;;;;;;5115011;28;20022;-57
2023/01/04 00:54:01;;;;;;;6.03;5.15;;;;;;;;;;5114275;28;20512;-57
2023/01/04 00:56:28;;;;;;;6.75;5.15;;;;;;;;;;5114758;28;20024;-57
2023/01/04 00:58:58;;;;;;;5.57;4.22;;;;;;;;;;5114643;28;20073;-56
2023/01/04 01:01:24;;;;;;;6.78;5.95;;;;;;;;;;5113898;28;20030;-58
2023/01/04 01:03:53;;;;;;;6.60;4.95;;;;;;;;;;5114457;28;20034;-58
2023/01/04 01:06:19;;;;;;;5.90;5.28;;;;;;;;;;5114106;28;20098;-56
2023/01/04 01:08:45;;;;;;;9.43;5.70;;;;;;;;;;5114135;28;20066;-57
2023/01/04 01:11:11;;;;;;;6.82;5.18;;;;;;;;;;5114054;28;20369;-57
2023/01/04 01:13:38;;;;;;;8.38;6.38;;;;;;;;;;5114624;28;20047;-57
2023/01/04 01:16:05;;;;;;;6.70;5.55;;;;;;;;;;5096683;28;20058;-57
2023/01/04 01:18:31;;;;;;;7.53;5.95;;;;;;;;;;5114246;28;20071;-57
2023/01/04 01:20:57;;;;;;;5.93;5.10;;;;;;;;;;5114267;28;20423;-57
2023/01/04 01:23:23;;;;;;;8.40;5.43;;;;;;;;;;5113985;28;20055;-56
2023/01/04 01:25:50;;;;;;;8.15;6.05;;;;;;;;;;5113991;28;20026;-57
2023/01/04 01:28:15;;;;;;;6.15;4.88;;;;;;;;;;5113679;28;20043;-57
2023/01/04 01:30:42;;;;;;;6.13;4.63;;;;;;;;;;5114146;28;20387;-56
2023/01/04 01:33:09;;;;;;;5.18;4.63;;;;;;;;;;5113821;28;20377;-57
2023/01/04 01:35:35;;;;;;;6.88;4.90;;;;;;;;;;5114193;28;20023;-57
2023/01/04 01:38:01;;;;;;;10.73;5.80;;;;;;;;;;5114347;28;20081;-57
2023/01/04 01:40:27;;;;;;;6.03;5.07;;;;;;;;;;5114292;28;20028;-57
2023/01/04 01:42:53;;;;;;;7.53;4.75;;;;;;;;;;5113802;28;20020;-58
2023/01/04 01:45:25;;;;;;;8.82;5.40;;;;;;;;;;5114142;28;20030;-57
2023/01/04 01:47:51;;;;;;;10.35;6.38;;;;;;;;;;5113864;28;20347;-55
2023/01/04 01:50:24;;;;;;;7.20;6.47;;;;;;;;;;5117949;28;20027;-58
2023/01/04 01:52:50;;;;;;;5.97;5.15;;;;;;;;;;5117532;28;20118;-58
2023/01/04 01:55:16;;;;;;;6.80;5.80;;;;;;;;;;5117859;28;20023;-57
2023/01/04 01:57:43;;;;;;;6.23;5.20;;;;;;;;;;5117907;28;20035;-58
2023/01/04 02:00:11;;;;;;;11.40;6.60;;;;;;;;;;5117293;28;20035;-57
2023/01/04 02:02:40;;;;;;;6.25;5.60;;;;;;;;;;5117140;28;20058;-58
2023/01/04 02:05:06;;;;;;;4.80;4.22;;;;;;;;;;5117673;28;20500;-57
2023/01/04 02:07:32;;;;;;;10.35;5.40;;;;;;;;;;5117257;28;20048;-57
2023/01/04 02:09:58;;;;;;;7.35;6.20;;;;;;;;;;5117266;28;20045;-56
2023/01/04 02:12:25;;;;;;;7.32;5.07;;;;;;;;;;5117219;28;20015;-56
2023/01/04 02:14:51;;;;;;;8.20;4.57;;;;;;;;;;5117730;28;20028;-57
2023/01/04 02:17:23;;;;;;;9.80;5.10;;;;;;;;;;5117046;28;20054;-55
2023/01/04 02:19:56;;;;;;;5.53;4.43;;;;;;;;;;5117682;28;20050;-55
2023/01/04 02:22:22;;;;;;;9.60;6.20;;;;;;;;;;5116971;28;20058;-56
2023/01/04 02:25:11;;;;;;;6.15;5.55;;;;;;;;;;5117238;28;20381;-58
2023/01/04 02:27:41;;;;;;;4.57;3.93;;;;;;;;;;5117253;28;20066;-57
2023/01/04 02:30:07;;;;;;;7.72;5.85;;;;;;;;;;5116536;28;20035;-57
2023/01/04 02:32:33;;;;;;;6.57;4.53;;;;;;;;;;5117384;28;20370;-56
2023/01/04 02:35:17;;;;;;;7.27;5.70;;;;;;;;;;5117323;28;20028;-57
2023/01/04 02:37:46;;;;;;;7.47;5.77;;;;;;;;;;5116442;28;20373;-55
2023/01/04 02:40:19;;;;;;;5.55;4.80;;;;;;;;;;5116627;28;20027;-58
2023/01/04 02:45:48;;;;;;;8.40;5.30;;;;;;;;;;5116688;28;20080;-55
2023/01/04 02:51:00;;;;;;;4.97;4.17;;;;;;;;;;5116552;28;20072;-55
2023/01/04 02:53:37;;;;;;;5.73;4.00;;;;;;;;;;5116987;28;20357;-57
2023/01/04 02:56:34;;;;;;;5.70;4.40;;;;;;;;;;5116734;28;20020;-56
2023/01/04 02:59:18;;;;;;;5.60;4.72;;;;;;;;;;5116128;28;20038;-57
2023/01/04 03:07:32;;;;;;;6.47;4.22;;;;;;;;;;5116585;28;20077;-57
2023/01/04 03:10:12;;;;;;;7.90;4.25;;;;;;;;;;5116176;28;20396;-58
2023/01/04 03:12:42;;;;;;;6.47;5.10;;;;;;;;;;5116859;28;20031;-57
2023/01/04 03:15:18;;;;;;;4.53;3.92;;;;;;;;;;5116370;28;20024;-57
2023/01/04 03:17:46;;;;;;;4.80;3.92;;;;;;;;;;5115612;28;20032;-58
2023/01/04 03:20:13;;;;;;;5.33;3.80;;;;;;;;;;5115906;28;20030;-56
2023/01/04 03:36:44;;;;;;;4.87;3.43;;;;;;;;;;5115558;28;20061;-56
2023/01/04 03:48:32;;;;;;;6.00;4.50;;;;;;;;;;5115412;28;20076;-56
2023/01/04 03:51:13;;;;;;;5.20;4.40;;;;;;;;;;5115146;28;20023;-57
2023/01/04 03:53:42;;;;;;;5.30;3.97;;;;;;;;;;5116055;28;20055;-57
2023/01/04 03:56:10;;;;;;;5.43;4.07;;;;;;;;;;5115141;28;20461;-57
2023/01/04 03:58:36;;;;;;;7.93;3.30;;;;;;;;;;5115436;28;20369;-56
2023/01/04 04:01:03;;;;;;;4.38;3.33;;;;;;;;;;5115040;28;20019;-57
2023/01/04 04:09:00;;;;;;;4.80;3.47;;;;;;;;;;5115023;28;20084;-56
2023/01/04 04:11:29;;;;;;;5.45;2.78;;;;;;;;;;5114239;28;20023;-55
2023/01/04 04:13:55;;;;;;;5.18;2.97;;;;;;;;;;5114587;28;20031;-57
2023/01/04 04:16:21;;;;;;;4.57;3.05;;;;;;;;;;5115020;28;20020;-57
2023/01/04 04:18:47;;;;;;;4.67;2.97;;;;;;;;;;5114804;28;20031;-55
2023/01/04 04:21:13;;;;;;;4.45;3.05;;;;;;;;;;5097197;28;20442;-56
2023/01/04 04:23:39;;;;;;;3.70;2.40;;;;;;;;;;5115446;28;20065;-58
2023/01/04 04:26:06;;;;;;;4.18;2.53;;;;;;;;;;5115285;28;20114;-58
2023/01/04 04:28:32;;;;;;;3.80;2.83;;;;;;;;;;5114587;28;20084;-54
2023/01/04 04:30:58;;;;;;;3.35;2.70;;;;;;;;;;5114860;28;20088;-57
2023/01/04 04:33:24;;;;;;;4.40;2.28;;;;;;;;;;5114864;28;20516;-57
2023/01/04 04:35:51;;;;;;;3.55;2.53;;;;;;;;;;5114609;28;20024;-57
2023/01/04 04:38:17;;;;;;;3.80;2.58;;;;;;;;;;5114434;28;20081;-56
2023/01/04 04:43:27;;;;;;;3.55;2.50;;;;;;;;;;5114798;28;20389;-56
2023/01/04 04:45:53;;;;;;;7.88;3.40;;;;;;;;;;5114973;28;20031;-57
2023/01/04 04:48:19;;;;;;;3.30;2.70;;;;;;;;;;5114559;28;20028;-57
2023/01/04 04:50:45;;;;;;;5.72;3.13;;;;;;;;;;5114364;28;20118;-56
2023/01/04 04:53:11;;;;;;;4.18;2.92;;;;;;;;;;5115097;28;20031;-57
2023/01/04 04:55:37;;;;;;;3.55;3.05;;;;;;;;;;5114663;28;20030;-56
2023/01/04 04:58:03;;;;;;;3.13;2.30;;;;;;;;;;5113843;28;20032;-58
2023/01/04 05:00:29;;;;;;;3.55;2.42;;;;;;;;;;5114231;28;20061;-56
2023/01/04 05:02:57;;;;;;;5.47;3.08;;;;;;;;;;5115140;28;20477;-57
2023/01/04 05:05:23;;;;;;;3.03;2.15;;;;;;;;;;5114615;28;20115;-58
2023/01/04 05:07:49;;;;;;;3.08;2.35;;;;;;;;;;5114237;28;20059;-56
2023/01/04 05:10:15;;;;;;;3.30;2.53;;;;;;;;;;5114213;28;20028;-57
2023/01/04 05:13:00;;;;;;;3.78;1.83;;;;;;;;;;5114452;28;20035;-57
2023/01/04 05:15:31;;;;;;;3.80;2.70;;;;;;;;;;5114188;28;20032;-57
2023/01/04 05:17:57;;;;;;;3.05;1.98;;;;;;;;;;5113962;28;20111;-57
2023/01/04 05:20:23;;;;;;;6.55;2.63;;;;;;;;;;5114052;28;20461;-57
2023/01/04 05:22:49;;;;;;;3.05;2.28;;;;;;;;;;5115664;28;20083;-58
2023/01/04 05:25:15;;;;;;;2.85;2.17;;;;;;;;;;5118740;28;20123;-58
2023/01/04 05:27:42;;;;;;;2.83;1.90;;;;;;;;;;5117908;28;20098;-58
2023/01/04 05:32:54;;;;;;;3.42;2.30;;;;;;;;;;5118179;28;20032;-58
2023/01/04 05:35:20;;;;;;;4.05;2.33;;;;;;;;;;5118387;28;20047;-58
2023/01/04 05:37:46;;;;;;;5.00;2.47;;;;;;;;;;5117915;28;20120;-57
2023/01/04 05:40:12;;;;;;;2.90;1.52;;;;;;;;;;5117879;28;20027;-57
2023/01/04 05:42:38;;;;;;;4.05;2.03;;;;;;;;;;5118682;28;20035;-57
2023/01/04 05:45:04;;;;;;;2.70;2.00;;;;;;;;;;5118408;28;20028;-57
2023/01/04 05:47:30;;;;;;;3.88;2.25;;;;;;;;;;5118058;28;20038;-57
2023/01/04 05:49:56;;;;;;;5.00;2.35;;;;;;;;;;5118530;28;20338;-57
2023/01/04 05:52:22;;;;;;;3.28;2.22;;;;;;;;;;5117380;28;20032;-58
2023/01/04 05:54:48;;;;;;;2.35;1.63;;;;;;;;;;5118203;28;20030;-58
2023/01/04 05:57:15;;;;;;;3.40;1.80;;;;;;;;;;5117541;28;20036;-58
2023/01/04 05:59:41;;;;;;;2.97;1.77;;;;;;;;;;5117385;28;20425;-56
2023/01/04 06:02:07;;;;;;;3.63;2.20;;;;;;;;;;5117175;28;20079;-58
2023/01/04 06:04:33;;;;;;;2.67;2.30;;;;;;;;;;5117736;28;20031;-56
2023/01/04 06:06:59;;;;;;;3.17;1.73;;;;;;;;;;5117448;28;20023;-57
2023/01/04 06:09:26;;;;;;;4.00;1.75;;;;;;;;;;5117906;28;20036;-58
2023/01/04 06:11:53;;;;;;;4.40;2.17;;;;;;;;;;5117295;28;20031;-57
2023/01/04 06:14:19;;;;;;;2.70;1.95;;;;;;;;;;5117800;28;20023;-58
2023/01/04 06:16:45;;;;;;;1.73;1.02;;;;;;;;;;5117094;28;20118;-55
2023/01/04 06:19:11;;;;;;;2.65;1.52;;;;;;;;;;5117211;28;20035;-58
2023/01/04 06:21:37;;;;;;;5.45;2.00;;;;;;;;;;5117415;28;20016;-58
2023/01/04 06:24:03;;;;;;;3.30;1.90;;;;;;;;;;5117697;28;20031;-57
2023/01/04 06:26:29;;;;;;;1.70;1.02;;;;;;;;;;5116666;28;20543;-57
2023/01/04 06:28:55;;;;;;;3.80;1.65;;;;;;;;;;5116977;28;20070;-57
2023/01/04 06:31:20;;;;;;;2.42;1.52;;;;;;;;;;5116983;28;20020;-58
2023/01/04 06:33:46;;;;;;;2.40;1.58;;;;;;;;;;5116435;28;20024;-58
2023/01/04 06:36:12;;;;;;;1.90;1.27;;;;;;;;;;5117628;28;20024;-56
2023/01/04 06:38:38;;;;;;;2.85;1.95;;;;;;;;;;5116632;28;20102;-58
2023/01/04 06:41:04;;;;;;;2.95;1.85;;;;;;;;;;5098475;28;20020;-54
2023/01/04 06:43:30;;;;;;;3.13;2.00;;;;;;;;;;5116959;28;20085;-58
2023/01/04 06:45:56;;;;;;;3.10;2.00;;;;;;;;;;5117128;28;20016;-55
2023/01/04 06:48:22;;;;;;;2.00;1.25;;;;;;;;;;5116991;28;20030;-58
2023/01/04 06:50:48;;;;;;;2.03;1.13;;;;;;;;;;5116510;28;20373;-57
2023/01/04 06:53:14;;;;;;;1.73;1.10;;;;;;;;;;5116982;28;20413;-58
2023/01/04 06:55:40;;;;;;;2.65;1.95;;;;;;;;;;5116841;28;20024;-57
2023/01/04 06:58:06;;;;;;;3.53;1.67;;;;;;;;;;5116866;28;20038;-58
2023/01/04 07:00:32;;;;;;;2.85;1.45;;;;;;;;;;5116204;28;20118;-58
2023/01/04 07:02:58;;;;;;;2.92;2.00;;;;;;;;;;5116505;28;20058;-58
2023/01/04 07:05:24;;;;;;;2.95;1.83;;;;;;;;;;5117124;28;20108;-57
2023/01/04 07:07:50;;;;;;;2.85;1.52;;;;;;;;;;5116479;28;20031;-57
2023/01/04 07:10:16;;;;;;;2.15;1.17;;;;;;;;;;5116362;28;20024;-58
2023/01/04 07:12:42;;;;;;;1.88;1.10;;;;;;;;;;5116070;28;20031;-58
2023/01/04 07:15:08;;;;;;;4.00;2.92;;;;;;;;;;5116604;28;20019;-58
2023/01/04 07:17:34;;;;;;;2.08;1.23;;;;;;;;;;5115913;28;20362;-57
2023/01/04 07:20:00;;;;;;;2.85;1.52;;;;;;;;;;5116242;28;20027;-58
2023/01/04 07:22:26;;;;;;;3.00;1.77;;;;;;;;;;5116200;28;20032;-57
2023/01/04 07:24:52;;;;;;;2.72;1.80;;;;;;;;;;5116354;28;20377;-56
2023/01/04 07:27:17;;;;;;;2.50;1.10;;;;;;;;;;5116064;28;20377;-57
2023/01/04 07:29:44;;;;;;;2.20;1.60;;;;;;;;;;5115759;28;20104;-57
2023/01/04 07:32:10;;;;;;;1.92;1.38;;;;;;;;;;5115695;28;20019;-57
2023/01/04 07:34:36;;;;;;;2.92;1.33;;;;;;;;;;5116234;28;20072;-56
2023/01/04 07:37:04;;;;;;;4.43;1.65;;;;;;;;;;5115553;28;20031;-58
2023/01/04 07:39:30;;;;;;;5.07;1.83;;;;;;;;;;5115922;28;20173;-57
2023/01/04 07:41:56;;;;;;;2.88;1.48;;;;;;;;;;5115597;28;20063;-57
2023/01/04 07:44:25;;;;;;;3.53;1.48;;;;;;;;;;5115210;28;20461;-58
2023/01/04 07:46:51;;;;;;;1.88;1.42;;;;;;;;;;5114359;28;20173;-58
2023/01/04 07:49:17;;;;;;;2.33;1.10;;;;;;;;;;5115389;28;20032;-56
2023/01/04 07:51:43;;;;;;;1.38;0.95;;;;;;;;;;5115191;28;20028;-58
2023/01/04 07:54:10;;;;;;;2.17;0.98;;;;;;;;;;5115908;28;20433;-57
2023/01/04 07:56:35;;;;;;;3.45;1.35;;;;;;;;;;5115397;28;20449;-57
2023/01/04 07:59:02;;;;;;;1.30;0.77;;;;;;;;;;5115061;28;20024;-55
2023/01/04 08:01:28;;;;;;;1.77;1.00;;;;;;;;;;5114823;28;20032;-53
2023/01/04 08:03:54;;;;;;;3.95;1.08;;;;;;;;;;5115715;28;20031;-57
2023/01/04 08:06:21;;;;;;;1.92;0.70;;;;;;;;;;5115592;28;20031;-58
2023/01/04 08:08:47;;;;;;;1.60;1.17;;;;;;;;;;5115252;28;20058;-58
2023/01/04 08:11:17;;;;;;;2.00;1.27;;;;;;;;;;5115782;28;20024;-58
2023/01/04 08:13:43;;;;;;;1.83;0.95;;;;;;;;;;5115460;28;20031;-58
2023/01/04 08:16:17;;;;;;;6.43;1.35;;;;;;;;;;5115190;28;20034;-57
2023/01/04 08:18:43;;;;;;;1.13;0.63;;;;;;;;;;5115126;28;20059;-55
2023/01/04 08:21:09;;;;;;;2.05;1.60;;;;;;;;;;5115054;28;20031;-58
2023/01/04 08:23:36;;;;;;;2.65;1.25;;;;;;;;;;5114824;28;20134;-57
2023/01/04 08:26:05;;;;;;;3.30;1.95;;;;;;;;;;5115379;28;20035;-58
2023/01/04 08:28:32;;;;;;;2.25;1.05;;;;;;;;;;5114699;28;20023;-58
2023/01/04 08:30:58;;;;;;;1.58;0.93;;;;;;;;;;5114942;28;20469;-58
2023/01/04 08:33:24;;;;;;;1.92;1.20;;;;;;;;;;5114669;28;20028;-58
2023/01/04 08:35:50;;;;;;;3.65;1.00;;;;;;;;;;5115206;28;20034;-58
2023/01/04 08:38:16;;;;;;;2.17;0.80;;;;;;;;;;5114211;28;20047;-58
2023/01/04 08:40:42;;;;;;;3.95;1.40;;;;;;;;;;5114538;28;20032;-57
2023/01/04 08:43:08;;;;;;;6.32;1.45;;;;;;;;;;5114426;28;20028;-58
2023/01/04 08:45:34;;;;;;;3.88;1.23;;;;;;;;;;5115128;28;20043;-58
2023/01/04 08:48:00;;;;;;;2.20;0.90;;;;;;;;;;5114419;28;20027;-58
2023/01/04 08:50:26;;;;;;;1.85;0.98;;;;;;;;;;5114344;28;20031;-58
2023/01/04 08:52:52;;;;;;;1.48;0.73;;;;;;;;;;5113993;28;20461;-58
2023/01/04 08:55:18;;;;;;;0.82;0.63;;;;;;;;;;5114886;28;20034;-56
2023/01/04 08:57:44;;;;;;;1.63;0.68;;;;;;;;;;5114161;28;20032;-56
2023/01/04 09:00:10;;;;;;;1.40;0.80;;;;;;;;;;5114223;28;20099;-59
2023/01/04 09:02:36;;;;;;;6.20;0.93;;;;;;;;;;5114434;28;20461;-58
2023/01/04 09:05:02;;;;;;;1.02;0.52;;;;;;;;;;5114165;28;20030;-57
2023/01/04 09:07:32;;;;;;;1.33;0.77;;;;;;;;;;5114728;28;20063;-56
2023/01/04 09:09:59;;;;;;;3.05;1.02;;;;;;;;;;5114409;28;20024;-56
2023/01/04 09:12:25;;;;;;;1.33;0.77;;;;;;;;;;5114701;28;20076;-53
2023/01/04 09:14:51;;;;;;;1.15;0.77;;;;;;;;;;5114238;28;20023;-56
2023/01/04 09:17:17;;;;;;;1.75;0.57;;;;;;;;;;5113760;28;20503;-56
2023/01/04 09:19:43;;;;;;;1.38;0.73;;;;;;;;;;5114137;28;20051;-55
2023/01/04 09:22:09;;;;;;;1.42;0.82;;;;;;;;;;5114027;28;20024;-57
2023/01/04 09:24:35;;;;;;;1.13;0.60;;;;;;;;;;5114405;28;20024;-56
2023/01/04 09:27:03;;;;;;;1.40;0.70;;;;;;;;;;5113716;28;20030;-57
2023/01/04 09:29:29;;;;;;;0.85;0.45;;;;;;;;;;5114422;28;20134;-57
2023/01/04 09:31:55;;;;;;;1.33;0.88;;;;;;;;;;5113891;28;20111;-57
2023/01/04 09:34:21;;;;;;;1.25;0.75;;;;;;;;;;5114177;28;20023;-56
2023/01/04 09:36:48;;;;;;;0.82;0.40;;;;;;;;;;5114136;28;20027;-56
2023/01/04 09:39:14;;;;;;;1.55;0.60;;;;;;;;;;5113847;28;20074;-56
2023/01/04 09:42:01;;;;;;;1.55;0.63;;;;;;;;;;5113853;28;20024;-56
2023/01/04 09:44:45;;;;;;;0.30;0.20;;;;;;;;;;5113838;28;20028;-57
2023/01/04 09:47:16;;;;;;;0.82;0.40;;;;;;;;;;5113364;28;20122;-56
2023/01/04 09:49:42;;;;;;;0.88;0.40;;;;;;;;;;5113767;28;20105;-55
2023/01/04 09:52:21;;;;;;;1.83;0.70;;;;;;;;;;5114270;28;20028;-57
2023/01/04 09:54:47;;;;;;;2.33;0.73;;;;;;;;;;5114110;28;20022;-56
2023/01/04 09:57:22;;;;;;;1.38;0.88;;;;;;;;;;5113625;28;20115;-55
2023/01/04 09:59:49;;;;;;;0.95;0.30;;;;;;;;;;5113739;28;20088;-55
2023/01/04 10:02:18;;;;;;;0.80;0.40;;;;;;;;;;5113440;28;20050;-57
2023/01/04 10:04:46;;;;;;;1.10;0.45;;;;;;;;;;5113844;28;20028;-56
2023/01/04 10:07:17;;;;;;;1.92;1.10;;;;;;;;;;5113597;28;20377;-57
2023/01/04 10:09:43;;;;;;;1.02;0.35;;;;;;;;;;5115120;28;20026;-58
2023/01/04 10:12:24;;;;;;;2.30;0.85;;;;;;;;;;5117274;28;20024;-57
2023/01/04 10:14:53;;;;;;;0.95;0.65;;;;;;;;;;5117618;28;20024;-58
2023/01/04 10:17:30;;;;;;;0.40;0.20;;;;;;;;;;5117162;28;20069;-58
2023/01/04 10:20:03;;;;;;;3.72;0.93;;;;;;;;;;5117820;28;20024;-58
2023/01/04 10:22:32;;;;;;;3.13;0.50;;;;;;;;;;5117477;28;20038;-57
2023/01/04 10:25:17;;;;;;;1.30;0.45;;;;;;;;;;5117114;28;20020;-58
2023/01/04 10:27:42;;;;;;;2.67;0.52;;;;;;;;;;5117064;28;20035;-58
2023/01/04 10:30:20;;;;;;;1.48;0.70;;;;;;;;;;5116968;28;20019;-58
2023/01/04 10:32:52;;;;;;;0.45;0.40;;;;;;;;;;5117427;28;20065;-58
2023/01/04 10:35:23;;;;;;;1.08;0.43;;;;;;;;;;5117461;28;20509;-58
2023/01/04 10:37:51;;;;;;;2.53;0.57;;;;;;;;;;5116666;28;20062;-58
2023/01/04 10:40:18;;;;;;;0.88;0.40;;;;;;;;;;5116800;28;20028;-58
2023/01/04 10:42:47;;;;;;;2.45;0.63;;;;;;;;;;5116745;28;20418;-56
2023/01/04 10:45:32;;;;;;;0.43;0.20;;;;;;;;;;5117227;28;20020;-58
2023/01/04 10:48:11;;;;;;;0.50;0.30;;;;;;;;;;5117209;28;20076;-56
2023/01/04 10:50:37;;;;;;;0.30;0.20;;;;;;;;;;5116932;28;20023;-57
2023/01/04 10:53:06;;;;;;;1.45;0.55;;;;;;;;;;5116584;28;20024;-58
2023/01/04 10:55:51;;;;;;;0.70;0.40;;;;;;;;;;5116833;28;20072;-57
2023/01/04 10:58:24;;;;;;;2.40;0.52;;;;;;;;;;5116353;28;20027;-58
2023/01/04 11:00:53;;;;;;;0.75;0.38;;;;;;;;;;5116609;28;20019;-58
2023/01/04 11:03:35;;;;;;;0.60;0.30;;;;;;;;;;5116741;28;20051;-58
2023/01/04 11:06:27;;;;;;;0.45;0.30;;;;;;;;;;5116166;28;20028;-58
2023/01/04 11:08:58;;;;;;;2.40;0.55;;;;;;;;;;5112382;28;20036;-58
2023/01/04 11:11:40;;;;;;;0.50;0.30;;;;;;;;;;5116175;28;20059;-56
2023/01/04 11:14:06;;;;;;;1.23;0.50;;;;;;;;;;5116119;28;20028;-58
2023/01/04 11:16:32;;;;;;;3.50;0.77;;;;;;;;;;5116109;28;20347;-58
2023/01/04 11:18:58;;;;;;;0.63;0.32;;;;;;;;;;5116356;28;20106;-58
2023/01/04 11:21:28;;;;;;;1.10;0.52;;;;;;;;;;5116105;28;20114;-59
2023/01/04 11:23:57;;;;;;;1.15;0.60;;;;;;;;;;5115602;28;20465;-59
2023/01/04 11:26:28;;;;;;;0.65;0.30;;;;;;;;;;5115916;28;20020;-56
2023/01/04 11:29:02;;;;;;;0.52;0.30;;;;;;;;;;5116626;28;20050;-58
2023/01/04 11:31:35;;;;;;;2.90;0.50;;;;;;;;;;5115815;28;20032;-56
2023/01/04 11:34:01;;;;;;;0.60;0.30;;;;;;;;;;5116098;28;20027;-58
2023/01/04 11:36:30;;;;;;;1.33;0.57;;;;;;;;;;5115722;28;20030;-58
2023/01/04 11:38:57;;;;;;;2.40;0.93;;;;;;;;;;5115541;28;20438;-58
2023/01/04 11:41:23;;;;;;;1.38;0.30;;;;;;;;;;5115639;28;20027;-58
2023/01/04 11:43:59;;;;;;;0.30;0.25;;;;;;;;;;5115741;28;20034;-56
2023/01/04 11:46:26;;;;;;;3.53;1.67;;;;;;;;;;5115822;28;20050;-58
2023/01/04 11:48:52;;;;;;;0.50;0.35;;;;;;;;;;5115356;28;20019;-56
2023/01/04 11:51:39;;;;;;;1.17;0.55;;;;;;;;;;5115345;28;20369;-58
2023/01/04 11:54:14;;;;;;;1.25;0.45;;;;;;;;;;5115671;28;20115;-58
2023/01/04 11:56:56;;;;;;;1.10;0.55;;;;;;;;;;5115963;28;20035;-58
2023/01/04 11:59:22;;;;;;;1.30;0.60;;;;;;;;;;5115239;28;20024;-58
2023/01/04 12:01:50;;;;;;;0.98;0.40;;;;;;;;;;5115432;28;20089;-55
2023/01/04 12:04:23;;;;;;;1.55;0.73;;;;;;;;;;5115928;28;20039;-58
2023/01/04 12:06:51;;;;;;;0.77;0.40;;;;;;;;;;5115089;28;20103;-58
2023/01/04 12:09:17;;;;;;;1.90;1.02;;;;;;;;;;5115363;28;20032;-58
2023/01/04 12:11:49;;;;;;;4.85;1.08;;;;;;;;;;5114927;28;20068;-58
2023/01/04 12:14:31;;;;;;;2.00;0.60;;;;;;;;;;5115518;28;20035;-57
2023/01/04 12:17:01;;;;;;;1.25;0.57;;;;;;;;;;5097168;28;20142;-58
2023/01/04 12:19:27;;;;;;;1.00;0.50;;;;;;;;;;5115213;28;20428;-56
2023/01/04 12:21:55;;;;;;;1.15;0.35;;;;;;;;;;5114812;28;20027;-58
2023/01/04 12:24:23;;;;;;;2.55;0.90;;;;;;;;;;5115362;28;20018;-58
2023/01/04 12:26:50;;;;;;;0.98;0.60;;;;;;;;;;5114970;28;20027;-57
2023/01/04 12:29:22;;;;;;;1.52;0.50;;;;;;;;;;5114712;28;20023;-58
2023/01/04 12:31:48;;;;;;;1.55;0.73;;;;;;;;;;5114403;28;20019;-57
2023/01/04 12:34:27;;;;;;;1.15;0.82;;;;;;;;;;5115017;28;20023;-56
2023/01/04 12:36:58;;;;;;;1.13;0.70;;;;;;;;;;5115372;28;20020;-58
2023/01/04 12:39:28;;;;;;;;;;;;;;;;;;5115342;28;20058;-57
2023/01/04 12:41:59;;;;;;;1.33;0.60;;;;;;;;;;5114409;28;20353;-58
2023/01/04 12:44:37;;;;;;;0.40;0.20;;;;;;;;;;5114687;28;20028;-58
2023/01/04 12:50:06;;;;;;;1.55;0.73;;;;;;;;;;5114300;28;20034;-58
2023/01/04 12:52:32;;;;;;;3.28;0.98;;;;;;;;;;5114686;28;20350;-58
2023/01/04 12:55:00;;;;;;;0.60;0.35;;;;;;;;;;5114746;28;20031;-58
2023/01/04 12:57:33;;;;;;;0.40;0.20;;;;;;;;;;5114237;28;20430;-59
2023/01/04 12:59:58;;;;;;;0.43;0.20;;;;;;;;;;5113953;28;20034;-57
2023/01/04 13:02:26;;;;;;;1.15;0.50;;;;;;;;;;5114039;28;20126;-58
2023/01/04 13:04:56;;;;;;;0.88;0.30;;;;;;;;;;5114369;28;20027;-57
2023/01/04 13:07:33;;;;;;;2.42;0.50;;;;;;;;;;5115129;28;20099;-56
2023/01/04 13:10:00;;;;;;;0.55;0.30;;;;;;;;;;5114513;28;20030;-56
2023/01/04 13:12:26;;;;;;;0.85;0.63;;;;;;;;;;5114109;28;20019;-57
2023/01/04 13:14:56;;;;;;;0.88;0.30;;;;;;;;;;5114029;28;20027;-58
2023/01/04 13:17:24;;;;;;;0.35;0.20;;;;;;;;;;5114101;28;20485;-54
2023/01/04 13:19:56;;;;;;;0.63;0.25;;;;;;;;;;5114117;28;20047;-58
2023/01/04 13:22:29;;;;;;;1.67;0.38;;;;;;;;;;5114416;28;20023;-57
2023/01/04 13:24:56;;;;;;;0.88;0.38;;;;;;;;;;5114245;28;20477;-58
2023/01/04 13:27:23;;;;;;;1.95;0.50;;;;;;;;;;5114644;28;20047;-56
2023/01/04 13:29:50;;;;;;;3.40;1.17;;;;;;;;;;5114305;28;20107;-58
2023/01/04 13:32:21;;;;;;;1.15;0.45;;;;;;;;;;5114265;28;20077;-58
2023/01/04 13:34:52;;;;;;;2.83;0.25;;;;;;;;;;5113959;28;20481;-58
2023/01/04 13:37:33;;;;;;;4.03;0.57;;;;;;;;;;5114462;28;20031;-58
2023/01/04 13:40:11;;;;;;;3.08;0.85;;;;;;;;;;5113899;28;20034;-58
2023/01/04 13:42:39;;;;;;;1.40;0.30;;;;;;;;;;5114243;28;20030;-58
2023/01/04 13:45:17;;;;;;;0.90;0.32;;;;;;;;;;5118238;28;20334;-57
2023/01/04 13:47:44;;;;;;;0.65;0.20;;;;;;;;;;5117823;28;20034;-58
2023/01/04 13:50:24;;;;;;;0.88;0.40;;;;;;;;;;5117453;28;20481;-57
2023/01/04 13:52:50;;;;;;;0.80;0.32;;;;;;;;;;5117748;28;20453;-58
2023/01/04 13:55:23;;;;;;;1.15;0.50;;;;;;;;;;5118190;28;20030;-57
2023/01/04 13:57:53;;;;;;;0.70;0.40;;;;;;;;;;5117336;28;20040;-58
2023/01/04 14:00:19;;;;;;;0.45;0.10;;;;;;;;;;5117484;28;20540;-56
2023/01/04 14:02:45;;;;;;;0.32;0.13;;;;;;;;;;5117847;28;20083;-58
2023/01/04 14:05:17;;;;;;;0.65;0.25;;;;;;;;;;5117393;28;20088;-58
2023/01/04 14:07:43;;;;;;;1.55;0.30;;;;;;;;;;5117233;28;20385;-58
2023/01/04 14:10:17;;;;;;;1.67;0.43;;;;;;;;;;5117622;28;20034;-56
2023/01/04 14:12:44;;;;;;;0.40;0.15;;;;;;;;;;5117386;28;20028;-58
2023/01/04 14:15:24;;;;;;;0.80;0.40;;;;;;;;;;5117679;28;20030;-57
2023/01/04 14:17:51;;;;;;;0.80;0.40;;;;;;;;;;5117739;28;20370;-58
2023/01/04 14:20:23;;;;;;;3.75;0.50;;;;;;;;;;5117715;28;20023;-57
2023/01/04 14:22:49;;;;;;;0.77;0.32;;;;;;;;;;5117228;28;20197;-57
2023/01/04 14:25:31;;;;;;;0.55;0.25;;;;;;;;;;5118017;28;20370;-57
2023/01/04 14:28:16;;;;;;;0.85;0.35;;;;;;;;;;5117450;28;20055;-58
2023/01/04 14:30:42;;;;;;;2.28;0.60;;;;;;;;;;5116657;28;20144;-58
2023/01/04 14:33:28;;;;;;;0.43;0.15;;;;;;;;;;5116651;28;20047;-57
2023/01/04 14:36:09;;;;;;;3.30;0.47;;;;;;;;;;5106444;28;20461;-58
2023/01/04 14:38:38;;;;;;;0.82;0.57;;;;;;;;;;5117373;28;20040;-58
2023/01/04 14:41:10;;;;;;;0.45;0.20;;;;;;;;;;5116496;28;20035;-58
2023/01/04 14:43:44;;;;;;;0.65;0.28;;;;;;;;;;5099360;28;20423;-58
2023/01/04 14:46:10;;;;;;;0.75;0.30;;;;;;;;;;5117251;28;20346;-58
2023/01/04 14:48:36;;;;;;;1.00;0.43;;;;;;;;;;5117145;28;20027;-58
2023/01/04 14:51:03;;;;;;;0.40;0.20;;;;;;;;;;5117200;28;20028;-58
2023/01/04 14:53:29;;;;;;;0.45;0.30;;;;;;;;;;5116835;28;20034;-58
2023/01/04 14:55:55;;;;;;;0.57;0.30;;;;;;;;;;5116164;28;20027;-55
2023/01/04 14:58:21;;;;;;;1.10;0.95;;;;;;;;;;5116258;28;20099;-55
2023/01/04 15:00:47;;;;;;;0.38;0.17;;;;;;;;;;5116822;28;20118;-53
2023/01/04 15:03:13;;;;;;;0.75;0.35;;;;;;;;;;5116358;28;20126;-56
2023/01/04 15:05:40;;;;;;;0.57;0.20;;;;;;;;;;5117099;28;20055;-56
2023/01/04 15:08:06;;;;;;;0.77;0.30;;;;;;;;;;5116216;28;20038;-55
2023/01/04 15:10:32;;;;;;;1.00;0.50;;;;;;;;;;5116408;28;20042;-56
2023/01/04 15:12:59;;;;;;;0.15;0.10;;;;;;;;;;5116450;28;20028;-58
2023/01/04 15:15:25;;;;;;;0.95;0.50;;;;;;;;;;5116113;28;20480;-56
2023/01/04 15:17:51;;;;;;;0.57;0.32;;;;;;;;;;5116477;28;20031;-55
2023/01/04 15:20:17;;;;;;;0.82;0.40;;;;;;;;;;5116225;28;20103;-57
2023/01/04 15:22:44;;;;;;;0.52;0.38;;;;;;;;;;5115486;28;20026;-54
2023/01/04 15:25:10;;;;;;;3.95;0.70;;;;;;;;;;5116690;28;20030;-57
2023/01/04 15:27:36;;;;;;;3.33;1.77;;;;;;;;;;5115945;28;20027;-57
2023/01/04 15:30:03;;;;;;;1.02;0.52;;;;;;;;;;5115817;28;20023;-57
2023/01/04 15:32:31;;;;;;;1.67;0.70;;;;;;;;;;5115841;28;20054;-55
2023/01/04 15:34:57;;;;;;;0.50;0.20;;;;;;;;;;5116060;28;20029;-56
2023/01/04 15:37:23;;;;;;;1.05;0.43;;;;;;;;;;5115504;28;20036;-57
2023/01/04 15:39:49;;;;;;;0.47;0.20;;;;;;;;;;5115459;28;20373;-57
2023/01/04 15:44:59;;;;;;;2.13;0.45;;;;;;;;;;5115865;28;20068;-56